Time;durP1;ratioP1;P1;durP2;ratioP2;P2;SDS_P1;SDS_P2;PMS_P1;PMS_P2;Temp;Humidity;BMP_temperature;BMP_pressure;BME280_temperature;BME280_humidity;BME280_pressure;Samples;Min_cycle;Max_cycle;Signal;HPM_P1;HPM_P2
2022/11/01 00:01:23;;;;;;;;;;;;;;;27.46;32.20;101462.47;4977078;28;835;-35
2022/11/01 00:03:48;;;;;;;;;;;;;;;27.50;32.07;101461.13;4977059;28;1133;-34
2022/11/01 00:06:13;;;;;;;;;;;;;;;27.49;32.01;101459.44;4976888;28;1264;-35
2022/11/01 00:08:38;;;;;;;;;;;;;;;27.46;32.19;101454.38;4977275;28;1169;-33
2022/11/01 00:11:06;;;;;;;;;;;;;;;27.53;32.23;101459.94;4977123;28;1232;-35
2022/11/01 00:13:31;;;;;;;;;;;;;;;27.50;32.32;101457.56;4985933;28;1890;-33
2022/11/01 00:15:57;;;;;;;;;;;;;;;27.49;32.48;101458.59;4981387;28;1094;-32
2022/11/01 00:18:22;;;;;;;;;;;;;;;27.44;31.99;101459.09;4976846;28;1177;-37
2022/11/01 00:20:47;;;;;;;;;;;;;;;27.43;31.77;101453.84;4976901;28;1162;-34
2022/11/01 00:23:12;;;;;;;;;;;;;;;27.55;32.63;101459.78;4976698;28;1263;-34
2022/11/01 00:25:38;;;;;;;;;;;;;;;27.41;33.46;101456.72;4986292;28;1075;-37
2022/11/01 00:28:03;;;;;;;;;;;;;;;27.38;34.25;101455.22;4978646;28;1958;-36
2022/11/01 00:30:28;;;;;;;;;;;;;;;27.40;33.84;101460.44;4977327;28;1165;-34
2022/11/01 00:32:55;;;;;;;;;;;;;;;27.41;33.93;101456.72;4976812;28;1078;-36
2022/11/01 00:35:20;;;;;;;;;;;;;;;27.41;34.07;101451.31;4976645;28;1915;-33
2022/11/01 00:37:46;;;;;;;;;;;;;;;27.38;34.10;101454.34;4977119;28;925;-37
2022/11/01 00:40:11;;;;;;;;;;;;;;;27.41;34.14;101456.72;4976888;28;1189;-37
2022/11/01 00:42:36;;;;;;;;;;;;;;;27.38;33.61;101447.09;4976466;28;1161;-31
2022/11/01 00:45:03;;;;;;;;;;;;;;;27.39;33.95;101447.97;4977354;28;1130;-34
2022/11/01 00:47:29;;;;;;;;;;;;;;;27.35;33.83;101449.28;4976760;28;1149;-35
2022/11/01 00:49:54;;;;;;;;;;;;;;;27.36;33.92;101451.81;4986845;28;1130;-33
2022/11/01 00:52:19;;;;;;;;;;;;;;;27.31;33.14;101453.34;4979363;28;1043;-34
2022/11/01 00:54:45;;;;;;;;;;;;;;;27.07;30.61;101447.75;4977313;28;1934;-34
2022/11/01 00:57:10;;;;;;;;;;;;;;;27.20;30.71;101449.97;4979454;28;2320;-35
2022/11/01 00:59:35;;;;;;;;;;;;;;;27.26;31.71;101441.19;4980251;28;1110;-34
2022/11/01 01:02:00;;;;;;;;;;;;;;;27.32;31.89;101445.09;4990490;28;1168;-35
2022/11/01 01:04:26;;;;;;;;;;;;;;;27.31;32.49;101448.78;4980920;28;1181;-34
2022/11/01 01:06:51;;;;;;;;;;;;;;;27.24;32.71;101450.47;4980169;28;1164;-34
2022/11/01 01:09:16;;;;;;;;;;;;;;;27.23;32.75;101446.91;4980093;28;1133;-35
2022/11/01 01:11:41;;;;;;;;;;;;;;;27.25;32.47;101450.31;4980561;28;1188;-36
2022/11/01 01:14:07;;;;;;;;;;;;;;;27.26;32.70;101453.84;4989464;28;1959;-34
2022/11/01 01:16:32;;;;;;;;;;;;;;;27.28;32.57;101445.59;4979999;28;1110;-34
2022/11/01 01:18:57;;;;;;;;;;;;;;;27.29;32.67;101449.97;4980053;28;1184;-37
2022/11/01 01:21:23;;;;;;;;;;;;;;;27.28;32.47;101449.13;4980179;28;1204;-33
2022/11/01 01:23:50;;;;;;;;;;;;;;;27.26;32.56;101449.28;4979795;28;1172;-34
2022/11/01 01:26:15;;;;;;;;;;;;;;;27.25;32.48;101450.31;4987693;28;1101;-34
2022/11/01 01:28:40;;;;;;;;;;;;;;;27.27;33.12;101447.44;4979795;28;2557;-34
2022/11/01 01:31:06;;;;;;;;;;;;;;;27.25;32.83;101444.91;4979662;28;1118;-35
2022/11/01 01:33:31;;;;;;;;;;;;;;;27.28;32.40;101453.69;4980029;28;1958;-37
2022/11/01 01:35:58;;;;;;;;;;;;;;;27.25;32.29;101447.59;4979654;28;1149;-32
2022/11/01 01:38:24;;;;;;;;;;;;;;;27.27;32.73;101444.72;4989903;28;1176;-36
2022/11/01 01:40:49;;;;;;;;;;;;;;;27.29;32.59;101448.13;4979521;28;1102;-37
2022/11/01 01:43:14;;;;;;;;;;;;;;;27.30;32.41;101448.94;4979904;28;1208;-35
2022/11/01 01:45:40;;;;;;;;;;;;;;;27.28;32.26;101445.59;4980198;28;1157;-36
2022/11/01 01:48:06;;;;;;;;;;;;;;;27.32;32.46;101445.09;4979388;28;1122;-34
2022/11/01 01:50:32;;;;;;;;;;;;;;;27.28;32.74;101453.69;4988715;28;1126;-34
2022/11/01 01:52:59;;;;;;;;;;;;;;;27.34;32.55;101453.03;4979489;28;1146;-35
2022/11/01 01:55:30;;;;;;;;;;;;;;;27.31;32.70;101451.47;4961920;28;1972;-33
2022/11/01 01:57:55;;;;;;;;;;;;;;;27.32;32.87;101445.09;4969171;28;2650;-35
2022/11/01 02:00:21;;;;;;;;;;;;;;;27.24;32.71;101445.91;4962455;28;1189;-35
2022/11/01 02:02:46;;;;;;;;;;;;;;;27.26;33.04;101449.28;4987512;28;1145;-34
2022/11/01 02:05:32;;;;;;;;;;;;;;;27.28;32.35;101456.41;4959024;28;1316;-34
2022/11/01 02:07:58;;;;;;;;;;;;;;;27.26;32.18;101456.53;4961365;28;1110;-32
2022/11/01 02:10:23;;;;;;;;;;;;;;;27.23;32.31;101455.03;4978944;28;1141;-33
2022/11/01 02:12:49;;;;;;;;;;;;;;;27.24;32.71;101456.69;4961893;28;1154;-33
2022/11/01 02:15:15;;;;;;;;;;;;;;;27.27;32.39;101450.13;4985867;28;1899;-32
2022/11/01 02:17:59;;;;;;;;;;;;;;;27.26;32.09;101456.53;4962148;28;1143;-34
2022/11/01 02:20:27;;;;;;;;;;;;;;;27.25;32.53;101452.16;4979043;28;1079;-34
2022/11/01 02:23:05;;;;;;;;;;;;;;;27.29;32.27;101456.22;4978749;28;1169;-38
2022/11/01 02:25:47;;;;;;;;;;;;;;;27.38;32.63;101463.31;4979147;28;858;-32
2022/11/01 02:28:25;;;;;;;;;;;;;;;27.29;31.49;101467.03;4985474;28;2674;-35
2022/11/01 02:31:06;;;;;;;;;;;;;;;27.23;31.71;101462.28;4978626;28;815;-34
2022/11/01 02:33:39;;;;;;;;;;;;;;;27.25;31.69;101466.50;4978745;28;1902;-35
2022/11/01 02:36:10;;;;;;;;;;;;;;;27.23;32.16;101467.69;4979507;28;929;-35
2022/11/01 02:38:39;;;;;;;;;;;;;;;27.22;32.35;101472.25;4963548;28;1009;-34
2022/11/01 02:41:05;;;;;;;;;;;;;;;27.22;32.26;101463.28;4969240;28;1324;-35
2022/11/01 02:43:30;;;;;;;;;;;;;;;27.25;31.95;101462.97;4997696;28;813;-36
2022/11/01 02:45:55;;;;;;;;;;;;;;;27.24;31.94;101470.22;4997977;28;1074;-36
2022/11/01 02:48:21;;;;;;;;;;;;;;;27.24;31.84;101461.28;4997438;28;882;-34
2022/11/01 02:50:47;;;;;;;;;;;;;;;27.25;31.69;101460.25;4992904;28;915;-32
2022/11/01 02:53:13;;;;;;;;;;;;;;;27.23;32.16;101464.97;4961545;28;1894;-36
2022/11/01 02:55:38;;;;;;;;;;;;;;;27.22;31.60;101463.28;4961246;28;1095;-33
2022/11/01 02:58:06;;;;;;;;;;;;;;;27.24;31.82;101461.28;4978210;28;2524;-37
2022/11/01 03:00:32;;;;;;;;;;;;;;;27.20;31.84;101466.16;4978398;28;1415;-35
2022/11/01 03:03:01;;;;;;;;;;;;;;;27.20;31.96;101466.16;4988608;28;847;-34
2022/11/01 03:05:35;;;;;;;;;;;;;;;27.22;31.75;101466.00;4996675;28;1211;-35
2022/11/01 03:08:05;;;;;;;;;;;;;;;27.18;31.79;101468.19;4978342;28;879;-32
2022/11/01 03:10:48;;;;;;;;;;;;;;;27.22;31.75;101472.25;4984089;28;1192;-33
2022/11/01 03:13:31;;;;;;;;;;;;;;;27.18;31.83;101462.78;4997528;28;1894;-34
2022/11/01 03:15:58;;;;;;;;;;;;;;;27.21;31.81;101469.72;4963568;28;860;-35
2022/11/01 03:18:28;;;;;;;;;;;;;;;27.21;31.52;101469.72;4963826;28;809;-35
2022/11/01 03:20:58;;;;;;;;;;;;;;;27.23;31.63;101468.53;4979276;28;819;-30
2022/11/01 03:23:44;;;;;;;;;;;;;;;27.23;31.57;101471.22;4971878;28;1142;-31
2022/11/01 03:26:10;;;;;;;;;;;;;;;27.22;31.58;101472.25;4979568;28;1121;-34
2022/11/01 03:28:38;;;;;;;;;;;;;;;27.23;31.31;101467.69;4964920;28;2616;-36
2022/11/01 03:31:07;;;;;;;;;;;;;;;27.22;31.48;101474.94;4960327;28;952;-36
2022/11/01 03:33:33;;;;;;;;;;;;;;;27.23;31.47;101476.63;4976779;28;1970;-36
2022/11/01 03:36:00;;;;;;;;;;;;;;;27.21;31.65;101475.13;4960397;28;843;-32
2022/11/01 03:38:26;;;;;;;;;;;;;;;27.21;31.49;101478.66;4981140;28;858;-32
2022/11/01 03:40:52;;;;;;;;;;;;;;;27.19;31.38;101472.59;4980002;28;747;-34
2022/11/01 03:43:18;;;;;;;;;;;;;;;27.21;31.69;101470.53;4979591;28;856;-34
2022/11/01 03:45:43;;;;;;;;;;;;;;;27.23;31.28;101470.38;4979422;28;823;-34
2022/11/01 03:48:09;;;;;;;;;;;;;;;27.21;30.98;101473.25;4979923;28;827;-35
2022/11/01 03:50:34;;;;;;;;;;;;;;;27.20;31.20;101471.56;4991820;28;1085;-31
2022/11/01 03:53:00;;;;;;;;;;;;;;;27.25;31.05;101473.75;4977462;28;840;-34
2022/11/01 03:55:25;;;;;;;;;;;;;;;27.22;31.40;101472.25;4977251;28;1906;-34
2022/11/01 03:57:54;;;;;;;;;;;;;;;27.26;31.22;101472.75;4977410;28;2695;-36
2022/11/01 04:00:20;;;;;;;;;;;;;;;27.23;31.20;101471.22;4981316;28;1129;-31
2022/11/01 04:02:46;;;;;;;;;;;;;;;27.24;31.16;101474.78;4982103;28;847;-33
2022/11/01 04:05:12;;;;;;;;;;;;;;;27.21;31.34;101473.25;4996763;28;871;-32
2022/11/01 04:07:38;;;;;;;;;;;;;;;27.24;31.07;101477.50;4996561;28;886;-34
2022/11/01 04:10:03;;;;;;;;;;;;;;;27.24;30.85;101480.19;4996788;28;850;-36
2022/11/01 04:12:28;;;;;;;;;;;;;;;27.21;30.89;101478.66;4996544;28;878;-31
2022/11/01 04:20:34;;;;;;;;;;;;;;;27.16;31.07;101478.28;4976921;28;697;-36
2022/11/01 04:23:03;;;;;;;;;;;;;;;27.20;31.06;101479.66;4961446;28;1222;-32
2022/11/01 04:25:28;;;;;;;;;;;;;;;27.19;30.79;101479.84;4977131;28;775;-32
2022/11/01 04:27:56;;;;;;;;;;;;;;;27.18;31.04;101489.78;4979923;28;1835;-31
2022/11/01 04:30:22;;;;;;;;;;;;;;;27.17;30.96;101485.41;4977353;28;760;-31
2022/11/01 04:32:47;;;;;;;;;;;;;;;27.19;30.59;101490.63;4981026;28;847;-33
2022/11/01 04:35:13;;;;;;;;;;;;;;;27.18;30.78;101480.81;4980700;28;1906;-36
2022/11/01 04:37:38;;;;;;;;;;;;;;;27.19;30.49;101485.25;4980780;28;925;-35
2022/11/01 04:40:06;;;;;;;;;;;;;;;27.40;31.09;101492.88;4977413;28;1559;-31
2022/11/01 04:42:33;;;;;;;;;;;;;;;27.41;31.25;101491.84;4980196;28;983;-33
2022/11/01 04:44:58;;;;;;;;;;;;;;;27.33;31.94;101492.69;4980884;28;1098;-31
2022/11/01 04:47:23;;;;;;;;;;;;;;;27.26;31.75;101497.91;4980580;28;1177;-35
2022/11/01 04:49:49;;;;;;;;;;;;;;;26.85;30.67;101495.91;4980525;28;1084;-37
2022/11/01 04:52:14;;;;;;;;;;;;;;;26.24;31.45;101496.75;4993322;28;1129;-40
2022/11/01 04:54:39;;;;;;;;;;;;;;;26.09;29.95;101493.78;4980979;28;1894;-42
2022/11/01 04:57:04;;;;;;;;;;;;;;;25.89;30.15;101498.53;4980417;28;2527;-43
2022/11/01 04:59:30;;;;;;;;;;;;;;;25.62;30.09;101498.47;4980799;28;1070;-40
2022/11/01 05:01:55;;;;;;;;;;;;;;;25.29;29.97;101504.34;4980428;28;1118;-31
2022/11/01 05:04:20;;;;;;;;;;;;;;;24.88;30.33;101509.25;4991742;28;1125;-32
2022/11/01 05:06:46;;;;;;;;;;;;;;;24.66;31.11;101509.47;4980339;28;1149;-32
2022/11/01 05:09:11;;;;;;;;;;;;;;;24.54;31.07;101514.19;4980404;28;1157;-35
2022/11/01 05:11:36;;;;;;;;;;;;;;;24.49;30.84;101512.97;4980033;28;1110;-35
2022/11/01 05:14:01;;;;;;;;;;;;;;;24.32;30.95;101516.22;4980125;28;1970;-34
2022/11/01 05:16:27;;;;;;;;;;;;;;;24.30;31.25;101520.94;4990524;28;1141;-34
2022/11/01 05:18:52;;;;;;;;;;;;;;;24.32;31.23;101521.63;4980058;28;1177;-36
2022/11/01 05:21:17;;;;;;;;;;;;;;;24.25;31.66;101525.91;4980089;28;1126;-32
2022/11/01 05:23:43;;;;;;;;;;;;;;;24.19;31.93;101523.78;4979964;28;1216;-30
2022/11/01 05:26:08;;;;;;;;;;;;;;;24.08;32.14;101530.13;4979791;28;1215;-31
2022/11/01 05:28:33;;;;;;;;;;;;;;;24.04;32.35;101528.72;4988615;28;2364;-34
2022/11/01 05:30:59;;;;;;;;;;;;;;;23.88;32.59;101530.13;4979803;28;1212;-36
2022/11/01 05:33:24;;;;;;;;;;;;;;;23.77;32.75;101535.66;4979641;28;1906;-33
2022/11/01 05:35:49;;;;;;;;;;;;;;;23.68;32.81;101532.84;4980114;28;1126;-33
2022/11/01 05:38:14;;;;;;;;;;;;;;;23.64;33.07;101535.94;4979878;28;1145;-31
2022/11/01 05:40:40;;;;;;;;;;;;;;;23.63;33.12;101542.28;4987255;28;1510;-33
2022/11/01 05:43:05;;;;;;;;;;;;;;;23.55;33.33;101537.63;4978757;28;1102;-32
2022/11/01 05:45:30;;;;;;;;;;;;;;;23.52;33.53;101540.59;4979698;28;1153;-35
2022/11/01 05:48:00;;;;;;;;;;;;;;;23.42;33.77;101545.94;4979715;28;1177;-33
2022/11/01 05:50:25;;;;;;;;;;;;;;;23.31;33.83;101539.66;4979629;28;1197;-33
2022/11/01 05:52:50;;;;;;;;;;;;;;;23.38;33.50;101550.72;4986414;28;947;-31
2022/11/01 05:55:16;;;;;;;;;;;;;;;23.42;33.66;101554.00;4979324;28;1910;-35
2022/11/01 05:57:41;;;;;;;;;;;;;;;23.36;33.76;101547.31;4979560;28;2550;-30
2022/11/01 06:00:07;;;;;;;;;;;;;;;23.25;34.03;101548.28;4979526;28;1137;-33
2022/11/01 06:02:32;;;;;;;;;;;;;;;23.11;34.10;101549.50;4979350;28;1101;-32
2022/11/01 06:04:57;;;;;;;;;;;;;;;23.40;33.49;101555.97;4985114;28;864;-32
2022/11/01 06:07:25;;;;;;;;;;;;;;;23.75;33.21;101559.97;4979275;28;1527;-33
2022/11/01 06:09:50;;;;;;;;;;;;;;;23.90;32.67;101555.03;4979007;28;1165;-33
2022/11/01 06:12:15;;;;;;;;;;;;;;;23.99;32.67;101563.25;4979090;28;1192;-34
2022/11/01 06:14:40;;;;;;;;;;;;;;;24.12;32.62;101565.63;4978967;28;1968;-35
2022/11/01 06:17:07;;;;;;;;;;;;;;;24.15;32.46;101566.19;4978702;28;1146;-31
2022/11/01 06:19:32;;;;;;;;;;;;;;;24.24;32.45;101569.06;4979215;28;1278;-33
2022/11/01 06:21:57;;;;;;;;;;;;;;;24.32;32.26;101571.88;4979068;28;1229;-35
2022/11/01 06:24:23;;;;;;;;;;;;;;;24.38;32.16;101565.06;4978717;28;1176;-31
2022/11/01 06:26:48;;;;;;;;;;;;;;;24.40;32.09;101565.75;4978821;28;1863;-33
2022/11/01 06:29:13;;;;;;;;;;;;;;;24.40;32.23;101566.63;4989597;28;1157;-31
2022/11/01 06:31:38;;;;;;;;;;;;;;;24.49;32.27;101572.13;4978567;28;1189;-31
2022/11/01 06:34:04;;;;;;;;;;;;;;;24.51;32.48;101575.50;4978874;28;1907;-35
2022/11/01 06:36:29;;;;;;;;;;;;;;;24.52;32.36;101571.84;4978887;28;1138;-30
2022/11/01 06:38:54;;;;;;;;;;;;;;;24.56;32.35;101582.16;4978450;28;1181;-30
2022/11/01 06:41:20;;;;;;;;;;;;;;;24.58;32.43;101577.47;4987858;28;866;-32
2022/11/01 06:43:46;;;;;;;;;;;;;;;24.62;32.46;101579.88;4979562;28;1082;-31
2022/11/01 06:46:12;;;;;;;;;;;;;;;24.67;32.39;101574.91;4979629;28;1251;-31
2022/11/01 06:48:37;;;;;;;;;;;;;;;24.74;32.45;101583.25;4978305;28;1161;-34
2022/11/01 06:51:03;;;;;;;;;;;;;;;24.76;32.40;101582.09;4978738;28;1267;-30
2022/11/01 06:53:28;;;;;;;;;;;;;;;24.86;32.22;101584.75;4978508;28;1953;-31
2022/11/01 06:55:53;;;;;;;;;;;;;;;24.87;32.01;101585.59;4989557;28;1082;-33
2022/11/01 06:58:19;;;;;;;;;;;;;;;24.86;32.11;101582.06;4980289;28;2432;-32
2022/11/01 07:00:44;;;;;;;;;;;;;;;25.02;32.17;101591.38;4969707;28;2124;-30
2022/11/01 07:03:10;;;;;;;;;;;;;;;25.03;32.07;101588.53;4978471;28;1181;-31
2022/11/01 07:05:35;;;;;;;;;;;;;;;25.15;32.10;101596.44;4969896;28;971;-30
2022/11/01 07:08:01;;;;;;;;;;;;;;;25.18;32.26;101598.81;4978577;28;1146;-29
2022/11/01 07:10:26;;;;;;;;;;;;;;;25.21;31.98;101598.50;4978467;28;1154;-31
2022/11/01 07:12:58;;;;;;;;;;;;;;;25.07;32.42;101600.69;4981252;28;1019;-31
2022/11/01 07:15:24;;;;;;;;;;;;;;;25.26;32.32;101598.06;4989254;28;1993;-32
2022/11/01 07:17:50;;;;;;;;;;;;;;;25.40;32.05;101596.72;4976328;28;939;-33
2022/11/01 07:20:15;;;;;;;;;;;;;;;25.68;31.99;101600.25;4960586;28;1174;-33
2022/11/01 07:22:40;;;;;;;;;;;;;;;25.48;32.28;101598.66;4977102;28;1517;-39
2022/11/01 07:25:05;;;;;;;;;;;;;;;25.44;32.66;101600.81;4969298;28;1111;-39
2022/11/01 07:27:33;;;;;;;;;;;;;;;25.20;32.11;101594.13;4979379;28;1344;-41
2022/11/01 07:29:58;;;;;;;;;;;;;;;25.24;31.99;101592.00;4979290;28;960;-37
2022/11/01 07:32:24;;;;;;;;;;;;;;;25.13;32.28;101593.88;4983088;28;1173;-39
2022/11/01 07:34:49;;;;;;;;;;;;;;;25.04;32.30;101586.72;4991569;28;1918;-41
2022/11/01 07:37:14;;;;;;;;;;;;;;;25.05;32.42;101593.78;4983205;28;1112;-40
2022/11/01 07:39:39;;;;;;;;;;;;;;;24.91;32.79;101587.03;4989563;28;1135;-40
2022/11/01 07:42:05;;;;;;;;;;;;;;;24.83;33.67;101588.59;4982096;28;1200;-39
2022/11/01 07:44:30;;;;;;;;;;;;;;;24.71;34.12;101592.44;4977174;28;1366;-36
2022/11/01 07:46:55;;;;;;;;;;;;;;;25.13;33.70;101587.63;4978098;28;1156;-40
2022/11/01 07:49:21;;;;;;;;;;;;;;;25.15;33.60;101585.66;4977412;28;1308;-40
2022/11/01 07:51:46;;;;;;;;;;;;;;;24.76;34.54;101583.91;4977346;28;1149;-39
2022/11/01 07:54:11;;;;;;;;;;;;;;;25.33;34.20;101585.69;4972181;28;1955;-39
2022/11/01 07:56:36;;;;;;;;;;;;;;;25.36;32.77;101589.94;4977685;28;1205;-39
2022/11/01 07:59:02;;;;;;;;;;;;;;;25.53;33.14;101588.28;4977467;28;1212;-39
2022/11/01 08:01:27;;;;;;;;;;;;;;;25.82;33.70;101589.09;4977407;28;1244;-40
2022/11/01 08:03:52;;;;;;;;;;;;;;;25.85;33.38;101583.41;4977757;28;1269;-37
2022/11/01 08:06:18;;;;;;;;;;;;;;;26.01;33.34;101575.47;4980781;28;1022;-40
2022/11/01 08:08:44;;;;;;;;;;;;;;;26.19;33.11;101579.16;4960014;28;1174;-37
2022/11/01 08:11:10;;;;;;;;;;;;;;;26.16;33.45;101578.44;4978005;28;1157;-40
2022/11/01 08:13:35;;;;;;;;;;;;;;;26.40;32.59;101576.13;4977333;28;1891;-38
2022/11/01 08:16:03;;;;;;;;;;;;;;;26.16;33.63;101575.75;4977466;28;1204;-37
2022/11/01 08:18:29;;;;;;;;;;;;;;;26.21;33.46;101577.16;4979984;28;1167;-38
2022/11/01 08:20:54;;;;;;;;;;;;;;;26.63;33.18;101565.66;4977738;28;1227;-38
2022/11/01 08:23:19;;;;;;;;;;;;;;;26.76;32.86;101570.59;4977166;28;1162;-33
2022/11/01 08:25:44;;;;;;;;;;;;;;;26.75;33.16;101568.06;4988150;28;1236;-37
2022/11/01 08:28:13;;;;;;;;;;;;;;;26.75;32.96;101566.22;4987372;28;1231;-36
2022/11/01 08:30:39;;;;;;;;;;;;;;;26.76;33.22;101567.91;4979165;28;1094;-37
2022/11/01 08:33:05;;;;;;;;;;;;;;;25.82;34.32;101564.84;4977131;28;1177;-40
2022/11/01 08:35:30;;;;;;;;;;;;;;;25.86;34.77;101568.94;4977450;28;1914;-42
2022/11/01 08:37:57;;;;;;;;;;;;;;;26.45;32.32;101563.00;4970066;28;1339;-42
2022/11/01 08:40:22;;;;;;;;;;;;;;;26.69;32.73;101572.28;4970985;28;1162;-43
2022/11/01 08:42:47;;;;;;;;;;;;;;;26.68;32.79;101567.84;4977920;28;1228;-42
2022/11/01 08:45:13;;;;;;;;;;;;;;;26.86;32.14;101562.38;4976494;28;1138;-39
2022/11/01 08:47:39;;;;;;;;;;;;;;;26.77;32.89;101572.31;4976738;28;1291;-38
2022/11/01 08:50:04;;;;;;;;;;;;;;;26.77;31.86;101572.31;4977035;28;1117;-39
2022/11/01 08:52:30;;;;;;;;;;;;;;;26.45;31.71;101565.72;4978022;28;1118;-38
2022/11/01 08:54:55;;;;;;;;;;;;;;;26.34;31.66;101563.28;4984290;28;1958;-39
2022/11/01 08:57:20;;;;;;;;;;;;;;;26.43;31.49;101556.91;4976834;28;1221;-38
2022/11/01 08:59:45;;;;;;;;;;;;;;;26.32;32.16;101558.00;4968600;28;1149;-35
2022/11/01 09:02:11;;;;;;;;;;;;;;;26.36;31.75;101562.09;4970835;28;1205;-39
2022/11/01 09:04:36;;;;;;;;;;;;;;;26.27;31.62;101563.03;4975806;28;1165;-37
2022/11/01 09:07:01;;;;;;;;;;;;;;;26.27;31.43;101557.63;4987787;28;1153;-36
2022/11/01 09:09:28;;;;;;;;;;;;;;;26.47;32.09;101558.31;4976959;28;1244;-39
2022/11/01 09:11:53;;;;;;;;;;;;;;;26.72;31.68;101554.91;4976724;28;1165;-38
2022/11/01 09:14:22;;;;;;;;;;;;;;;26.73;31.27;101557.44;4977196;28;1902;-39
2022/11/01 09:16:48;;;;;;;;;;;;;;;26.90;31.99;101554.81;4978900;28;1173;-39
2022/11/01 09:19:13;;;;;;;;;;;;;;;27.02;32.00;101555.41;4989127;28;1177;-35
2022/11/01 09:21:38;;;;;;;;;;;;;;;26.93;31.99;101553.63;4980246;28;1216;-39
2022/11/01 09:24:04;;;;;;;;;;;;;;;26.89;32.31;101555.84;4980160;28;1141;-39
2022/11/01 09:26:29;;;;;;;;;;;;;;;26.82;33.00;101549.38;4980419;28;1232;-40
2022/11/01 09:28:57;;;;;;;;;;;;;;;26.97;32.34;101544.22;4966502;28;1398;-39
2022/11/01 09:31:22;;;;;;;;;;;;;;;27.19;32.20;101542.81;4962972;28;1347;-40
2022/11/01 09:33:47;;;;;;;;;;;;;;;27.31;31.98;101547.91;4967999;28;1952;-39
2022/11/01 09:36:13;;;;;;;;;;;;;;;27.24;32.05;101547.72;4979933;28;1170;-38
2022/11/01 09:38:38;;;;;;;;;;;;;;;27.24;32.13;101547.72;4980080;28;1160;-36
2022/11/01 09:41:16;;;;;;;;;;;;;;;27.11;31.93;101550.88;4978170;28;1137;-33
2022/11/01 09:43:42;;;;;;;;;;;;;;;27.17;31.98;101542.13;4959162;28;1332;-34
2022/11/01 09:46:07;;;;;;;;;;;;;;;27.13;31.91;101538.03;4967935;28;1126;-33
2022/11/01 09:48:33;;;;;;;;;;;;;;;27.24;31.82;101535.03;4962317;28;1213;-34
2022/11/01 09:50:59;;;;;;;;;;;;;;;27.20;31.75;101535.53;4980186;28;1197;-35
2022/11/01 09:53:25;;;;;;;;;;;;;;;27.24;31.58;101540.44;4967325;28;1963;-35
2022/11/01 09:56:11;;;;;;;;;;;;;;;27.32;31.45;101538.78;4962548;28;1185;-31
2022/11/01 09:58:39;;;;;;;;;;;;;;;27.10;32.03;101532.97;4962390;28;1316;-31
2022/11/01 10:01:10;;;;;;;;;;;;;;;27.20;31.59;101531.00;4960632;28;1296;-32
2022/11/01 10:03:51;;;;;;;;;;;;;;;27.06;31.88;101534.31;4966315;28;1260;-35
2022/11/01 10:06:26;;;;;;;;;;;;;;;27.13;31.76;101532.63;4962061;28;1154;-35
2022/11/01 10:09:08;;;;;;;;;;;;;;;27.08;31.64;101527.75;4942710;28;1277;-33
2022/11/01 10:11:39;;;;;;;;;;;;;;;26.97;31.07;101526.16;4944871;28;1249;-31
2022/11/01 10:14:04;;;;;;;;;;;;;;;27.24;31.00;101526.09;4962504;28;1965;-33
2022/11/01 10:16:30;;;;;;;;;;;;;;;26.99;31.73;101526.81;4959335;28;1347;-35
2022/11/01 10:19:04;;;;;;;;;;;;;;;27.11;32.05;101526.59;4960337;28;1324;-33
2022/11/01 10:21:41;;;;;;;;;;;;;;;27.10;32.33;101524.88;4959093;28;1363;-40
2022/11/01 10:24:07;;;;;;;;;;;;;;;27.10;32.39;101520.31;4959192;28;1335;-37
2022/11/01 10:26:33;;;;;;;;;;;;;;;27.29;31.92;101526.47;4962088;28;1189;-38
2022/11/01 10:29:05;;;;;;;;;;;;;;;27.31;31.75;101520.88;4961412;28;1157;-38
2022/11/01 10:31:30;;;;;;;;;;;;;;;27.17;30.25;101523.22;4960745;28;1161;-38
2022/11/01 10:33:58;;;;;;;;;;;;;;;27.18;31.38;101524.91;4952346;28;1915;-37
2022/11/01 10:36:33;;;;;;;;;;;;;;;27.08;31.85;101518.78;4965628;28;1161;-37
2022/11/01 10:39:05;;;;;;;;;;;;;;;27.23;31.87;101519.84;4997318;28;992;-32
2022/11/01 10:41:59;;;;;;;;;;;;;;;27.28;31.87;101511.25;4987041;28;1160;-38
2022/11/01 10:44:26;;;;;;;;;;;;;;;27.34;31.77;101512.44;4960034;28;1207;-35
2022/11/01 10:46:51;;;;;;;;;;;;;;;27.32;31.95;101514.47;4977969;28;1173;-40
2022/11/01 10:49:17;;;;;;;;;;;;;;;27.24;31.97;101502.63;4947973;28;1332;-39
2022/11/01 10:51:42;;;;;;;;;;;;;;;27.32;32.02;101500.97;4965630;28;1359;-38
2022/11/01 10:54:09;;;;;;;;;;;;;;;27.30;32.15;101495.72;4975907;28;1906;-39
2022/11/01 10:56:36;;;;;;;;;;;;;;;27.35;32.07;101487.97;4982062;28;1212;-39
2022/11/01 10:59:12;;;;;;;;;;;;;;;27.32;32.22;101493.72;4967958;28;1318;-37
2022/11/01 11:01:41;;;;;;;;;;;;;;;27.24;32.04;101493.69;4964118;28;1339;-37
2022/11/01 11:04:06;;;;;;;;;;;;;;;27.22;32.11;101487.59;4944805;29;1336;-40
2022/11/01 11:06:32;;;;;;;;;;;;;;;27.24;32.19;101491.00;4946903;28;1197;-39
2022/11/01 11:08:58;;;;;;;;;;;;;;;27.39;31.90;101488.47;4960967;28;1281;-38
2022/11/01 11:11:39;;;;;;;;;;;;;;;27.41;31.94;101482.91;4943775;28;1411;-36
2022/11/01 11:14:05;;;;;;;;;;;;;;;26.97;32.68;101474.88;4976300;28;1951;-40
2022/11/01 11:16:41;;;;;;;;;;;;;;;26.59;33.36;101479.78;4971408;28;1086;-39
2022/11/01 11:19:07;;;;;;;;;;;;;;;26.83;32.91;101481.72;4955676;28;1245;-39
2022/11/01 11:21:33;;;;;;;;;;;;;;;26.75;33.42;101469.06;4971122;28;1268;-40
2022/11/01 11:23:58;;;;;;;;;;;;;;;26.61;33.96;101470.50;4972701;28;1422;-40
2022/11/01 11:26:24;;;;;;;;;;;;;;;26.48;34.41;101467.41;4976176;28;1098;-36
2022/11/01 11:28:53;;;;;;;;;;;;;;;26.47;34.35;101463.88;4975737;28;1164;-39
2022/11/01 11:31:24;;;;;;;;;;;;;;;26.72;33.62;101464.00;4975769;28;1315;-41
2022/11/01 11:33:50;;;;;;;;;;;;;;;26.62;34.29;101463.25;4971753;28;1910;-39
2022/11/01 11:36:17;;;;;;;;;;;;;;;26.46;34.01;101459.47;4941538;29;1387;-36
2022/11/01 11:38:46;;;;;;;;;;;;;;;26.75;33.55;101458.25;4973867;28;1228;-38
2022/11/01 11:41:12;;;;;;;;;;;;;;;26.35;34.30;101462.47;4962768;28;1291;-41
2022/11/01 11:43:40;;;;;;;;;;;;;;;26.70;33.49;101459.75;4965235;28;1244;-38
2022/11/01 11:46:08;;;;;;;;;;;;;;;26.29;34.44;101456.66;4977845;28;1213;-36
2022/11/01 11:48:35;;;;;;;;;;;;;;;26.38;34.30;101454.91;4977743;28;1204;-35
2022/11/01 11:51:01;;;;;;;;;;;;;;;26.38;34.21;101457.59;4960168;28;1403;-35
2022/11/01 11:53:28;;;;;;;;;;;;;;;26.13;34.97;101457.41;4978121;28;1910;-36
2022/11/01 11:55:54;;;;;;;;;;;;;;;26.33;34.73;101454.53;4967961;28;1169;-38
2022/11/01 11:58:21;;;;;;;;;;;;;;;25.90;35.20;101449.00;4960764;28;1222;-39
2022/11/01 12:00:47;;;;;;;;;;;;;;;26.62;34.11;101449.78;4955963;28;1181;-32
2022/11/01 12:03:13;;;;;;;;;;;;;;;26.86;33.81;101454.41;4975893;28;1236;-38
2022/11/01 12:05:39;;;;;;;;;;;;;;;27.17;32.81;101450.28;4964870;28;1156;-37
2022/11/01 12:08:05;;;;;;;;;;;;;;;26.96;33.33;101445.34;4951290;28;1329;-39
2022/11/01 12:10:33;;;;;;;;;;;;;;;26.41;34.80;101453.72;4949047;28;1164;-39
2022/11/01 12:12:59;;;;;;;;;;;;;;;26.16;35.52;101450.84;4976250;28;1168;-40
2022/11/01 12:15:24;;;;;;;;;;;;;;;25.84;36.38;101449.66;4960099;28;1898;-40
2022/11/01 12:17:49;;;;;;;;;;;;;;;25.38;37.33;101450.56;4968948;28;1482;-38
2022/11/01 12:20:24;;;;;;;;;;;;;;;25.39;37.23;101446.91;4972348;28;1138;-40
2022/11/01 12:22:55;;;;;;;;;;;;;;;25.53;36.68;101445.50;4962791;28;1250;-38
2022/11/01 12:25:21;;;;;;;;;;;;;;;26.38;35.04;101448.66;4977288;28;1185;-36
2022/11/01 12:27:54;;;;;;;;;;;;;;;26.81;34.78;101458.63;4977256;28;1373;-37
2022/11/01 12:30:20;;;;;;;;;;;;;;;26.98;34.15;101452.25;4960205;28;1370;-35
2022/11/01 12:32:47;;;;;;;;;;;;;;;26.88;34.37;101455.09;4977097;28;1173;-34
2022/11/01 12:35:20;;;;;;;;;;;;;;;26.82;34.67;101455.75;4959637;28;1964;-34
2022/11/01 12:37:52;;;;;;;;;;;;;;;26.61;34.49;101453.50;4974697;28;996;-36
2022/11/01 12:40:18;;;;;;;;;;;;;;;26.91;33.92;101456.59;4975019;28;1157;-36
2022/11/01 12:42:49;;;;;;;;;;;;;;;26.60;34.90;101460.72;4956833;28;1118;-34
2022/11/01 12:45:21;;;;;;;;;;;;;;;26.99;33.85;101463.91;4974421;28;1075;-33
2022/11/01 12:47:47;;;;;;;;;;;;;;;26.99;34.12;101456.63;4980437;28;1153;-37
2022/11/01 12:50:22;;;;;;;;;;;;;;;26.62;34.58;101461.41;4953993;28;1264;-35
2022/11/01 12:52:49;;;;;;;;;;;;;;;26.83;34.23;101454.72;4956456;28;1268;-30